Meath Environmental Platform

Observations for Trim Patrick St

Time AQI Temp °C Hum % Pres Pa CO μg/m³ H₂S μg/m³ NO μg/m³ NO₂ μg/m³ O₃ μg/m³ SO₂ μg/m³ PM1 μg/m³ PM2.5 μg/m³ PM10 μg/m³
Monday 3 August 2026
18:45 4 23.4 45 68,884 0 17.65 0.99 34.99 97.67 6.69 3.71 9.06 9.96
18:43 4 23.5 44 68,890 0 19.13 0.96 33.62 94.03 7.52 2.86 9.09 10
18:42 4 23.5 44 68,904 0 17.17 0.97 29.99 96.39 6.85 2.86 8.32 9.16
18:41 4 23.6 44 68,898 0 15.68 0.9 24.3 91.58 6.12 4.57 9.13 10.05
18:40 4 23.6 44 68,886 0 17.19 0.92 28.1 91.69 6.47 2 8.38 9.22
18:39 4 23.6 44 68,898 0 15.87 0.9 30.64 86.82 6.49 2.86 8.37 9.21
18:38 4 23.6 44 68,916 0 14.52 0.92 23.46 85.58 6.38 3.71 9.92 10.91
18:37 4 23.7 44 68,908 0 14.88 0.92 24.7 92.86 6.77 3.71 9.92 10.91
18:35 4 23.7 44 68,894 0 15.23 0.97 18.68 81.72 6.39 3.71 9.15 10.07
18:34 4 23.7 44 68,910 0 18.7 0.96 29.56 96.72 7.11 3.71 9.14 10.05
18:28 4 23.9 43 68,908 0 20.13 0.94 35.57 111.68 6.93 3.71 9.18 10.1
18:27 4 24 43 68,930 0 20.5 0.96 38.41 122.79 6.99 4.57 10.75 11.82
18:26 4 24 42 68,930 0 19.97 0.95 31.72 111.39 7.29 2.86 8.44 9.29
18:25 4 24 42 68,926 0 19.91 0.95 33.42 124.84 7.32 3.71 8.45 9.3
18:24 4 24 42 68,894 0 18.72 0.96 34.7 107.89 7.65 2.86 8.46 9.3
18:20 4 24.2 42 68,935 0 18.48 0.98 32.9 117.64 7.43 3.71 9.27 10.2
18:18 4 24.2 42 68,932 0 18.64 0.95 34.19 108.66 7.9 2.86 8.51 9.36
18:17 4 24.2 41 68,930 0 17.57 0.99 26.3 102.63 7.56 2.86 8.53 9.38
18:15 4 24.3 41 68,953 0 17.31 1.03 29.75 99.61 7.15 3.71 9.33 10.26
18:14 4 24.3 41 68,959 0 17.25 1.07 23.91 91.85 7.29 4.57 10.89 11.98